Time;durP1;ratioP1;P1;durP2;ratioP2;P2;SDS_P1;SDS_P2;PMS_P1;PMS_P2;Temp;Humidity;BMP_temperature;BMP_pressure;BME280_temperature;BME280_humidity;BME280_pressure;Samples;Min_cycle;Max_cycle;Signal;HPM_P1;HPM_P2
2019/06/22 00:00:30;;;;;;;3.1;2.1;;;;;;;;;;;;;
2019/06/22 00:02:55;;;;;;;4.5;2.1;;;;;;;;;;;;;
2019/06/22 00:05:27;;;;;;;3.3;2.3;;;;;;;;;;;;;
2019/06/22 00:07:52;;;;;;;4.1;2.3;;;;;;;;;;;;;
2019/06/22 00:10:21;;;;;;;2.5;2.3;;;;;;;;;;;;;
2019/06/22 00:12:47;;;;;;;4.1;2.5;;;;;;;;;;;;;
2019/06/22 00:15:13;;;;;;;2.5;2.3;;;;;;;;;;;;;
2019/06/22 00:17:41;;;;;;;4;2.2;;;;;;;;;;;;;
2019/06/22 00:20:03;;;;;;;5.4;2.2;;;;;;;;;;;;;
2019/06/22 00:22:32;;;;;;;3.6;2.2;;;;;;;;;;;;;
2019/06/22 00:24:57;;;;;;;5.7;2.4;;;;;;;;;;;;;
2019/06/22 00:27:20;;;;;;;4.1;2.5;;;;;;;;;;;;;
2019/06/22 00:29:44;;;;;;;3.5;2.7;;;;;;;;;;;;;
2019/06/22 00:32:12;;;;;;;7.3;3.6;;;;;;;;;;;;;
2019/06/22 00:34:40;;;;;;;6.5;4;;;;;;;;;;;;;
2019/06/22 00:37:02;;;;;;;5.5;3.9;;;;;;;;;;;;;
2019/06/22 00:39:25;;;;;;;4.5;3;;;;;;;;;;;;;
2019/06/22 00:41:53;;;;;;;3.3;2.6;;;;;;;;;;;;;
2019/06/22 00:44:22;;;;;;;5.7;2.6;;;;;;;;;;;;;
2019/06/22 00:46:52;;;;;;;3.9;2.9;;;;;;;;;;;;;
2019/06/22 00:49:16;;;;;;;5.1;2.9;;;;;;;;;;;;;
2019/06/22 00:51:44;;;;;;;5.1;2.8;;;;;;;;;;;;;
2019/06/22 00:54:10;;;;;;;3;2.6;;;;;;;;;;;;;
2019/06/22 00:56:35;;;;;;;4.8;3.3;;;;;;;;;;;;;
2019/06/22 00:58:59;;;;;;;4.3;2.9;;;;;;;;;;;;;
2019/06/22 01:01:27;;;;;;;3.7;2.9;;;;;;;;;;;;;
2019/06/22 01:03:54;;;;;;;3.3;2.8;;;;;;;;;;;;;
2019/06/22 01:06:25;;;;;;;4.4;2.8;;;;;;;;;;;;;
2019/06/22 01:08:46;;;;;;;6.2;3.1;;;;;;;;;;;;;
2019/06/22 01:11:10;;;;;;;3.5;2.6;;;;;;;;;;;;;
2019/06/22 01:13:44;;;;;;;6.7;3;;;;;;;;;;;;;
2019/06/22 01:16:05;;;;;;;3.2;2.5;;;;;;;;;;;;;
2019/06/22 01:18:26;;;;;;;3.8;2.3;;;;;;;;;;;;;
2019/06/22 01:20:58;;;;;;;3.6;2.1;;;;;;;;;;;;;
2019/06/22 01:23:24;;;;;;;4.8;2.4;;;;;;;;;;;;;
2019/06/22 01:25:54;;;;;;;4.1;2.4;;;;;;;;;;;;;
2019/06/22 01:28:18;;;;;;;3.6;2.8;;;;;;;;;;;;;
2019/06/22 01:30:43;;;;;;;3;2.4;;;;;;;;;;;;;
2019/06/22 01:33:15;;;;;;;4;2.7;;;;;;;;;;;;;
2019/06/22 01:35:34;;;;;;;5.5;2.4;;;;;;;;;;;;;
2019/06/22 01:38:02;;;;;;;4.1;2.4;;;;;;;;;;;;;
2019/06/22 01:40:25;;;;;;;4.4;2.4;;;;;;;;;;;;;
2019/06/22 01:42:49;;;;;;;2.6;2.2;;;;;;;;;;;;;
2019/06/22 01:45:18;;;;;;;4.1;2;;;;;;;;;;;;;
2019/06/22 01:47:44;;;;;;;4;2.2;;;;;;;;;;;;;
2019/06/22 01:50:12;;;;;;;3.4;2.3;;;;;;;;;;;;;
2019/06/22 01:52:36;;;;;;;3.8;2.4;;;;;;;;;;;;;
2019/06/22 01:55:09;;;;;;;3.4;2.3;;;;;;;;;;;;;
2019/06/22 01:57:40;;;;;;;3.4;2.2;;;;;;;;;;;;;
2019/06/22 02:00:07;;;;;;;2.6;2.3;;;;;;;;;;;;;
2019/06/22 02:02:35;;;;;;;4.6;2.5;;;;;;;;;;;;;
2019/06/22 02:04:59;;;;;;;3.4;2.2;;;;;;;;;;;;;
2019/06/22 02:07:30;;;;;;;3.8;2.9;;;;;;;;;;;;;
2019/06/22 02:09:58;;;;;;;3.7;2.7;;;;;;;;;;;;;
2019/06/22 02:12:27;;;;;;;1.7;1.3;;;;;;;;;;;;;
2019/06/22 02:15:05;;;;;;;2.7;1.8;;;;;;;;;;;;;
2019/06/22 02:17:32;;;;;;;3.3;1.8;;;;;;;;;;;;;
2019/06/22 02:19:59;;;;;;;4.4;2.1;;;;;;;;;;;;;
2019/06/22 02:22:26;;;;;;;2.6;2.4;;;;;;;;;;;;;
2019/06/22 02:24:53;;;;;;;3;2.1;;;;;;;;;;;;;
2019/06/22 02:27:16;;;;;;;4.8;2.4;;;;;;;;;;;;;
2019/06/22 02:29:48;;;;;;;3.1;2.5;;;;;;;;;;;;;
2019/06/22 02:32:21;;;;;;;3.7;2.5;;;;;;;;;;;;;
2019/06/22 02:34:45;;;;;;;3.4;2.5;;;;;;;;;;;;;
2019/06/22 02:37:10;;;;;;;5.1;2.5;;;;;;;;;;;;;
2019/06/22 02:39:42;;;;;;;4;2.4;;;;;;;;;;;;;
2019/06/22 02:42:05;;;;;;;2.9;2.5;;;;;;;;;;;;;
2019/06/22 02:44:33;;;;;;;4.6;2.9;;;;;;;;;;;;;
2019/06/22 02:47:00;;;;;;;5.7;3.5;;;;;;;;;;;;;
2019/06/22 02:49:23;;;;;;;6.8;3.8;;;;;;;;;;;;;
2019/06/22 02:51:51;;;;;;;5.4;3.2;;;;;;;;;;;;;
2019/06/22 02:54:14;;;;;;;6.7;3.6;;;;;;;;;;;;;
2019/06/22 02:56:42;;;;;;;7.3;4.2;;;;;;;;;;;;;
2019/06/22 02:59:09;;;;;;;4.7;3.1;;;;;;;;;;;;;
2019/06/22 03:01:34;;;;;;;6.1;2.8;;;;;;;;;;;;;
2019/06/22 03:04:07;;;;;;;4.2;2.8;;;;;;;;;;;;;
2019/06/22 03:06:41;;;;;;;5.2;3.2;;;;;;;;;;;;;
2019/06/22 03:09:17;;;;;;;3.1;2.7;;;;;;;;;;;;;
2019/06/22 03:11:34;;;;;;;3.8;2.8;;;;;;;;;;;;;
2019/06/22 03:14:01;;;;;;;4.3;2.7;;;;;;;;;;;;;
2019/06/22 03:16:28;;;;;;;4.3;2.6;;;;;;;;;;;;;
2019/06/22 03:18:51;;;;;;;3.1;2.8;;;;;;;;;;;;;
2019/06/22 03:21:18;;;;;;;4.4;3;;;;;;;;;;;;;
2019/06/22 03:23:42;;;;;;;5.6;3.1;;;;;;;;;;;;;
2019/06/22 03:26:11;;;;;;;3.3;3;;;;;;;;;;;;;
2019/06/22 03:28:33;;;;;;;5.7;3.3;;;;;;;;;;;;;
2019/06/22 03:31:00;;;;;;;4.6;2.7;;;;;;;;;;;;;
2019/06/22 03:33:29;;;;;;;5.2;2.5;;;;;;;;;;;;;
2019/06/22 03:35:52;;;;;;;5.1;3.1;;;;;;;;;;;;;
2019/06/22 03:38:18;;;;;;;5.1;3;;;;;;;;;;;;;
2019/06/22 03:40:45;;;;;;;5.3;3.8;;;;;;;;;;;;;
2019/06/22 03:43:10;;;;;;;4.5;3.1;;;;;;;;;;;;;
2019/06/22 03:45:34;;;;;;;5.9;3.5;;;;;;;;;;;;;
2019/06/22 03:48:03;;;;;;;5.2;3.5;;;;;;;;;;;;;
2019/06/22 03:50:27;;;;;;;6.9;3.5;;;;;;;;;;;;;
2019/06/22 03:52:55;;;;;;;4.6;3.4;;;;;;;;;;;;;
2019/06/22 03:55:22;;;;;;;4.8;3.1;;;;;;;;;;;;;
2019/06/22 03:57:49;;;;;;;6;3.1;;;;;;;;;;;;;
2019/06/22 04:02:33;;;;;;;4.5;3.3;;;;;;;15.99;86.56152;939.2414;;;;
2019/06/22 04:05:09;;;;;;;4.1;2.9;;;;;;;15.99;86.58496;939.3234;;;;
2019/06/22 04:07:31;;;;;;;4.6;2.4;;;;;;;15.93;87.05957;939.368;;;;
2019/06/22 04:10:11;;;;;;;4.1;2.2;;;;;;;15.78;87.72266;939.2913;;;;
2019/06/22 04:12:36;;;;;;;3.5;2.3;;;;;;;15.96;87.04199;939.2795;;;;
2019/06/22 04:15:07;;;;;;;3.5;2.5;;;;;;;16.28;85.71582;939.2391;;;;
2019/06/22 04:17:41;;;;;;;4.1;2.5;;;;;;;16.24;86.00977;939.1792;;;;
2019/06/22 04:20:16;;;;;;;3.8;2;;;;;;;16.36;85.01465;939.157;;;;
2019/06/22 04:22:38;;;;;;;4.2;2;;;;;;;16.38;84.55664;939.2483;;;;
2019/06/22 04:25:11;;;;;;;4.9;2.4;;;;;;;16.41;85.02734;939.3259;;;;
2019/06/22 04:27:43;;;;;;;3.7;2.1;;;;;;;;;;;;;
2019/06/22 04:30:05;;;;;;;4.8;2.3;;;;;;;;;;;;;
2019/06/22 04:32:26;;;;;;;4.4;2.4;;;;;;;;;;;;;
2019/06/22 04:34:53;;;;;;;4.8;2.2;;;;;;;;;;;;;
2019/06/22 04:37:20;;;;;;;5.1;2.7;;;;;;;;;;;;;
2019/06/22 04:39:51;;;;;;;5;2.6;;;;;;;;;;;;;
2019/06/22 04:42:17;;;;;;;3.6;2.3;;;;;;;;;;;;;
2019/06/22 04:45:03;;;;;;;4.3;2.4;;;;;;;;;;;;;
2019/06/22 04:47:33;;;;;;;3.8;2.4;;;;;;;;;;;;;
2019/06/22 04:49:58;;;;;;;2.3;1.9;;;;;;;;;;;;;
2019/06/22 04:52:32;;;;;;;2.9;2;;;;;;;;;;;;;
2019/06/22 04:54:51;;;;;;;2.6;2.2;;;;;;;;;;;;;
2019/06/22 04:57:16;;;;;;;4.6;1.9;;;;;;;;;;;;;
2019/06/22 04:59:44;;;;;;;4;1.8;;;;;;;;;;;;;
2019/06/22 05:02:09;;;;;;;3.9;1.8;;;;;;;;;;;;;
2019/06/22 05:04:33;;;;;;;2;1.5;;;;;;;;;;;;;
2019/06/22 05:06:59;;;;;;;3.3;1.6;;;;;;;;;;;;;
2019/06/22 05:09:28;;;;;;;3.9;1.5;;;;;;;;;;;;;
2019/06/22 05:11:59;;;;;;;3.2;1;;;;;;;;;;;;;
2019/06/22 05:14:22;;;;;;;2.8;0.9;;;;;;;;;;;;;
2019/06/22 05:16:48;;;;;;;1.6;1;;;;;;;;;;;;;
2019/06/22 05:19:13;;;;;;;2.9;0.9;;;;;;;;;;;;;
2019/06/22 05:21:41;;;;;;;1.3;0.9;;;;;;;;;;;;;
2019/06/22 05:24:05;;;;;;;3.4;1.2;;;;;;;;;;;;;
2019/06/22 05:26:40;;;;;;;2.1;1.1;;;;;;;;;;;;;
2019/06/22 05:29:03;;;;;;;2.5;1.2;;;;;;;;;;;;;
2019/06/22 05:31:30;;;;;;;3.4;1.3;;;;;;;;;;;;;
2019/06/22 05:33:56;;;;;;;2.8;1.3;;;;;;;;;;;;;
2019/06/22 05:36:21;;;;;;;3;1.4;;;;;;;;;;;;;
2019/06/22 05:38:51;;;;;;;2.5;1.3;;;;;;;;;;;;;
2019/06/22 05:41:15;;;;;;;1.9;1.3;;;;;;;;;;;;;
2019/06/22 05:43:51;;;;;;;5.9;1.4;;;;;;;;;;;;;
2019/06/22 05:46:07;;;;;;;2.9;1.4;;;;;;;;;;;;;
2019/06/22 05:48:32;;;;;;;3.3;1.3;;;;;;;;;;;;;
2019/06/22 05:51:05;;;;;;;1.7;1.2;;;;;;;;;;;;;
2019/06/22 05:53:48;;;;;;;3;1.4;;;;;;;;;;;;;
2019/06/22 05:56:03;;;;;;;2.4;1.2;;;;;;;;;;;;;
2019/06/22 05:58:33;;;;;;;2.5;1.2;;;;;;;;;;;;;
2019/06/22 06:01:09;;;;;;;4.9;1.3;;;;;;;;;;;;;
2019/06/22 06:03:33;;;;;;;3.6;1.2;;;;;;;;;;;;;
2019/06/22 06:06:01;;;;;;;3.1;1.3;;;;;;;;;;;;;
2019/06/22 06:08:26;;;;;;;3.4;1.2;;;;;;;;;;;;;
2019/06/22 06:10:49;;;;;;;4.1;1.3;;;;;;;;;;;;;
2019/06/22 06:13:23;;;;;;;5.3;1.4;;;;;;;;;;;;;
2019/06/22 06:16:07;;;;;;;5.3;1.4;;;;;;;;;;;;;
2019/06/22 06:18:13;;;;;;;3.2;1.3;;;;;;;;;;;;;
2019/06/22 06:20:36;;;;;;;5;1.3;;;;;;;;;;;;;
2019/06/22 06:23:06;;;;;;;2.8;1.3;;;;;;;;;;;;;
2019/06/22 06:25:38;;;;;;;3.9;1.6;;;;;;;;;;;;;
2019/06/22 06:28:00;;;;;;;3;1.5;;;;;;;;;;;;;
2019/06/22 06:30:31;;;;;;;3.3;1.6;;;;;;;;;;;;;
2019/06/22 06:33:01;;;;;;;2.6;1.3;;;;;;;;;;;;;
2019/06/22 06:35:28;;;;;;;2.9;1.3;;;;;;;;;;;;;
2019/06/22 06:38:00;;;;;;;4.3;1.3;;;;;;;;;;;;;
2019/06/22 06:40:26;;;;;;;3.2;1.3;;;;;;;;;;;;;
2019/06/22 06:42:52;;;;;;;2.5;1.1;;;;;;;;;;;;;
2019/06/22 06:45:17;;;;;;;3.1;1.2;;;;;;;;;;;;;
2019/06/22 06:47:52;;;;;;;4.3;1.4;;;;;;;;;;;;;
2019/06/22 06:50:16;;;;;;;3.5;1.4;;;;;;;;;;;;;
2019/06/22 06:52:43;;;;;;;2.6;1.2;;;;;;;;;;;;;
2019/06/22 06:55:10;;;;;;;3.9;1.3;;;;;;;;;;;;;
2019/06/22 06:57:34;;;;;;;2.2;1.1;;;;;;;;;;;;;
2019/06/22 07:00:03;;;;;;;3.4;1.2;;;;;;;;;;;;;
2019/06/22 07:02:28;;;;;;;2.2;1.2;;;;;;;;;;;;;
2019/06/22 07:04:53;;;;;;;1.3;1.1;;;;;;;;;;;;;
2019/06/22 07:07:23;;;;;;;2.2;1.1;;;;;;;;;;;;;
2019/06/22 07:09:55;;;;;;;3.9;1.4;;;;;;;;;;;;;
2019/06/22 07:12:31;;;;;;;4.2;1.3;;;;;;;;;;;;;
2019/06/22 07:14:59;;;;;;;2.2;1.3;;;;;;;;;;;;;
2019/06/22 07:17:27;;;;;;;3.2;1.6;;;;;;;;;;;;;
2019/06/22 07:20:06;;;;;;;4.1;1.7;;;;;;;;;;;;;
2019/06/22 07:22:46;;;;;;;3.3;1.2;;;;;;;;;;;;;
2019/06/22 07:25:11;;;;;;;1.8;1.2;;;;;;;;;;;;;
2019/06/22 07:27:37;;;;;;;4;1.4;;;;;;;;;;;;;
2019/06/22 07:30:06;;;;;;;4.8;1.4;;;;;;;;;;;;;
2019/06/22 07:32:36;;;;;;;5.7;1.6;;;;;;;;;;;;;
2019/06/22 07:34:58;;;;;;;3.3;1.3;;;;;;;;;;;;;
2019/06/22 07:37:30;;;;;;;4;1.5;;;;;;;;;;;;;
2019/06/22 07:40:06;;;;;;;4.4;1.4;;;;;;;;;;;;;
2019/06/22 07:42:26;;;;;;;2.4;1.4;;;;;;;;;;;;;
2019/06/22 07:44:53;;;;;;;2.2;1.4;;;;;;;;;;;;;
2019/06/22 07:47:22;;;;;;;1.7;1.4;;;;;;;;;;;;;
2019/06/22 07:49:48;;;;;;;2.2;1.3;;;;;;;;;;;;;
2019/06/22 07:52:14;;;;;;;2.3;1.3;;;;;;;;;;;;;
2019/06/22 07:54:44;;;;;;;2.4;1.4;;;;;;;;;;;;;
2019/06/22 07:57:10;;;;;;;3.1;1.5;;;;;;;;;;;;;
2019/06/22 07:59:38;;;;;;;2.8;1.5;;;;;;;;;;;;;
2019/06/22 08:02:06;;;;;;;1.9;1.3;;;;;;;;;;;;;
2019/06/22 08:04:32;;;;;;;2.8;1.5;;;;;;;;;;;;;
2019/06/22 08:06:56;;;;;;;2.3;1.4;;;;;;;;;;;;;
2019/06/22 08:09:26;;;;;;;4.1;1.6;;;;;;;;;;;;;
2019/06/22 08:11:53;;;;;;;3.1;1.6;;;;;;;;;;;;;
2019/06/22 08:14:20;;;;;;;4.7;1.5;;;;;;;;;;;;;
2019/06/22 08:16:51;;;;;;;3;1.5;;;;;;;;;;;;;
2019/06/22 08:19:20;;;;;;;4.9;1.5;;;;;;;;;;;;;
2019/06/22 08:21:45;;;;;;;3;1.5;;;;;;;;;;;;;
2019/06/22 08:24:18;;;;;;;3;1.4;;;;;;;;;;;;;
2019/06/22 08:26:45;;;;;;;4.3;1.6;;;;;;;;;;;;;
2019/06/22 08:29:10;;;;;;;3.9;1.5;;;;;;;;;;;;;
2019/06/22 08:31:34;;;;;;;2.4;1.3;;;;;;;;;;;;;
2019/06/22 08:33:59;;;;;;;2.4;1.4;;;;;;;;;;;;;
2019/06/22 08:36:25;;;;;;;1.9;1.5;;;;;;;;;;;;;
2019/06/22 08:38:53;;;;;;;2.1;1.4;;;;;;;;;;;;;
2019/06/22 08:41:16;;;;;;;3.4;1.4;;;;;;;;;;;;;
2019/06/22 08:43:42;;;;;;;4.1;1.3;;;;;;;;;;;;;
2019/06/22 08:46:10;;;;;;;3.3;1.4;;;;;;;;;;;;;
2019/06/22 08:48:36;;;;;;;4.6;1.5;;;;;;;;;;;;;
2019/06/22 08:50:59;;;;;;;4.4;1.3;;;;;;;;;;;;;
2019/06/22 08:53:24;;;;;;;3.3;1.3;;;;;;;;;;;;;
2019/06/22 08:55:51;;;;;;;6.3;1.4;;;;;;;;;;;;;
2019/06/22 08:58:16;;;;;;;2.2;1.5;;;;;;;;;;;;;
2019/06/22 09:00:39;;;;;;;2.9;1.5;;;;;;;;;;;;;
2019/06/22 09:03:04;;;;;;;5.2;1.7;;;;;;;;;;;;;
2019/06/22 09:05:34;;;;;;;1.9;1.1;;;;;;;;;;;;;
2019/06/22 09:08:01;;;;;;;2.6;1.2;;;;;;;;;;;;;
2019/06/22 09:10:27;;;;;;;3.9;1.3;;;;;;;;;;;;;
2019/06/22 09:12:52;;;;;;;3.4;1.1;;;;;;;;;;;;;
2019/06/22 09:15:16;;;;;;;2.1;1.2;;;;;;;;;;;;;
2019/06/22 09:17:44;;;;;;;1.7;1;;;;;;;;;;;;;
2019/06/22 09:20:10;;;;;;;2.5;1.1;;;;;;;;;;;;;
2019/06/22 09:22:36;;;;;;;2.1;1.2;;;;;;;;;;;;;
2019/06/22 09:25:05;;;;;;;3;1.2;;;;;;;;;;;;;
2019/06/22 09:27:27;;;;;;;3.6;1.2;;;;;;;;;;;;;
2019/06/22 09:29:52;;;;;;;2.1;1.1;;;;;;;;;;;;;
2019/06/22 09:32:21;;;;;;;2.6;1.2;;;;;;;;;;;;;
2019/06/22 09:34:48;;;;;;;1.6;1.1;;;;;;;;;;;;;
2019/06/22 09:37:11;;;;;;;2.7;1;;;;;;;;;;;;;
2019/06/22 09:39:35;;;;;;;1.9;1;;;;;;;;;;;;;
2019/06/22 09:42:03;;;;;;;3.1;1.1;;;;;;;;;;;;;
2019/06/22 09:44:28;;;;;;;1.6;1;;;;;;;;;;;;;
2019/06/22 09:46:52;;;;;;;2.7;1.1;;;;;;;;;;;;;
2019/06/22 09:49:17;;;;;;;1.2;0.9;;;;;;;;;;;;;
2019/06/22 09:51:44;;;;;;;3.7;1.1;;;;;;;;;;;;;
2019/06/22 09:54:08;;;;;;;2.4;1.1;;;;;;;;;;;;;
2019/06/22 09:56:41;;;;;;;1.5;1;;;;;;;;;;;;;
2019/06/22 09:59:08;;;;;;;2.8;1.3;;;;;;;;;;;;;
2019/06/22 10:01:35;;;;;;;2.7;1.1;;;;;;;;;;;;;
2019/06/22 10:04:00;;;;;;;2.6;1.2;;;;;;;;;;;;;
2019/06/22 10:06:24;;;;;;;2.3;1.2;;;;;;;;;;;;;
2019/06/22 10:08:50;;;;;;;2.6;1.4;;;;;;;;;;;;;
2019/06/22 10:11:17;;;;;;;2.5;1.2;;;;;;;;;;;;;
2019/06/22 10:13:43;;;;;;;3.5;1.2;;;;;;;;;;;;;
2019/06/22 10:16:11;;;;;;;2;1.3;;;;;;;;;;;;;
2019/06/22 10:18:39;;;;;;;3.2;1.2;;;;;;;;;;;;;
2019/06/22 10:21:12;;;;;;;1.5;1.2;;;;;;;;;;;;;
2019/06/22 10:23:30;;;;;;;2.3;1.3;;;;;;;;;;;;;
2019/06/22 10:25:55;;;;;;;3.1;1.3;;;;;;;;;;;;;
2019/06/22 10:28:20;;;;;;;2.8;1.3;;;;;;;;;;;;;
2019/06/22 10:30:50;;;;;;;2.3;1.4;;;;;;;;;;;;;
2019/06/22 10:33:15;;;;;;;1.6;1.2;;;;;;;;;;;;;
2019/06/22 10:35:46;;;;;;;5.3;1.5;;;;;;;;;;;;;
2019/06/22 10:38:05;;;;;;;2.4;1.3;;;;;;;;;;;;;
2019/06/22 10:40:33;;;;;;;2.1;1.2;;;;;;;;;;;;;
2019/06/22 10:43:02;;;;;;;1.6;1.1;;;;;;;;;;;;;
2019/06/22 10:45:24;;;;;;;2.9;1.1;;;;;;;;;;;;;
2019/06/22 10:47:49;;;;;;;1.5;1.1;;;;;;;;;;;;;
2019/06/22 10:50:19;;;;;;;4.6;1.3;;;;;;;;;;;;;
2019/06/22 10:52:47;;;;;;;1.9;1.1;;;;;;;;;;;;;
2019/06/22 10:58:01;;;;;;;3;1.1;;;;;;;;;;;;;
2019/06/22 11:00:27;;;;;;;1.6;1.3;;;;;;;;;;;;;
2019/06/22 11:02:57;;;;;;;2.3;1;;;;;;;;;;;;;
2019/06/22 11:05:28;;;;;;;3.7;1.2;;;;;;;;;;;;;
2019/06/22 11:07:53;;;;;;;3.5;1.4;;;;;;;;;;;;;
2019/06/22 11:10:25;;;;;;;3;1.4;;;;;;;;;;;;;
2019/06/22 11:12:50;;;;;;;4.4;1.7;;;;;;;;;;;;;
2019/06/22 11:15:17;;;;;;;3.3;1.6;;;;;;;;;;;;;
2019/06/22 11:17:45;;;;;;;3.8;1.5;;;;;;;;;;;;;
2019/06/22 11:20:07;;;;;;;2.5;1.6;;;;;;;;;;;;;
2019/06/22 11:22:36;;;;;;;2.4;1.5;;;;;;;;;;;;;
2019/06/22 11:25:00;;;;;;;3.4;1.6;;;;;;;;;;;;;
2019/06/22 11:27:24;;;;;;;4.2;1.9;;;;;;;;;;;;;
2019/06/22 11:29:48;;;;;;;2.8;2;;;;;;;;;;;;;
2019/06/22 11:32:20;;;;;;;6.6;2.1;;;;;;;;;;;;;
2019/06/22 11:34:44;;;;;;;4.4;2;;;;;;;;;;;;;
2019/06/22 11:37:13;;;;;;;2.8;1.7;;;;;;;;;;;;;
2019/06/22 11:39:37;;;;;;;5.5;2;;;;;;;;;;;;;
2019/06/22 11:42:02;;;;;;;2.7;1.8;;;;;;;;;;;;;
2019/06/22 11:44:35;;;;;;;2.5;1.8;;;;;;;;;;;;;
2019/06/22 11:46:56;;;;;;;4.2;1.9;;;;;;;;;;;;;
2019/06/22 11:49:21;;;;;;;2.9;1.9;;;;;;;;;;;;;
2019/06/22 11:51:50;;;;;;;3.7;2.1;;;;;;;;;;;;;
2019/06/22 11:54:22;;;;;;;3.1;2;;;;;;;;;;;;;
2019/06/22 11:56:56;;;;;;;2.3;1.7;;;;;;;;;;;;;
2019/06/22 11:59:20;;;;;;;4.2;1.8;;;;;;;;;;;;;
2019/06/22 12:01:46;;;;;;;3.4;2;;;;;;;;;;;;;
2019/06/22 12:04:16;;;;;;;3.4;2.1;;;;;;;;;;;;;
2019/06/22 12:06:49;;;;;;;2.7;2.2;;;;;;;;;;;;;
2019/06/22 12:09:11;;;;;;;2.6;2.2;;;;;;;;;;;;;
2019/06/22 12:11:41;;;;;;;3.3;2.1;;;;;;;;;;;;;
2019/06/22 12:14:14;;;;;;;3.3;2.3;;;;;;;;;;;;;
2019/06/22 12:16:49;;;;;;;2.8;2.2;;;;;;;;;;;;;
2019/06/22 12:19:15;;;;;;;3.6;2.2;;;;;;;;;;;;;
2019/06/22 12:21:43;;;;;;;3.4;2.3;;;;;;;;;;;;;
2019/06/22 12:24:06;;;;;;;2.5;2.3;;;;;;;;;;;;;
2019/06/22 12:26:32;;;;;;;5;2.8;;;;;;;;;;;;;
2019/06/22 12:29:02;;;;;;;4.3;2.9;;;;;;;;;;;;;
2019/06/22 12:31:27;;;;;;;4.8;2.7;;;;;;;;;;;;;
2019/06/22 12:33:57;;;;;;;2.9;2.6;;;;;;;;;;;;;
2019/06/22 12:36:25;;;;;;;3;2.7;;;;;;;;;;;;;
2019/06/22 12:38:56;;;;;;;4.1;2.9;;;;;;;;;;;;;
2019/06/22 12:41:25;;;;;;;3.7;2.7;;;;;;;;;;;;;
2019/06/22 12:43:49;;;;;;;4.5;2.9;;;;;;;;;;;;;
2019/06/22 12:46:16;;;;;;;2.9;2.7;;;;;;;;;;;;;
2019/06/22 12:48:42;;;;;;;3.3;3;;;;;;;;;;;;;
2019/06/22 12:51:16;;;;;;;5;3.2;;;;;;;;;;;;;
2019/06/22 12:53:40;;;;;;;3.5;3.2;;;;;;;;;;;;;
2019/06/22 12:56:06;;;;;;;4.4;3.1;;;;;;;;;;;;;
2019/06/22 12:58:33;;;;;;;3.5;3.2;;;;;;;;;;;;;
2019/06/22 13:00:57;;;;;;;3.4;3.1;;;;;;;;;;;;;
2019/06/22 13:03:24;;;;;;;3.9;3.5;;;;;;;;;;;;;
2019/06/22 13:05:49;;;;;;;4.1;3.7;;;;;;;;;;;;;
2019/06/22 13:08:14;;;;;;;5.3;3.7;;;;;;;;;;;;;
2019/06/22 13:10:42;;;;;;;4.1;3.8;;;;;;;;;;;;;
2019/06/22 13:13:11;;;;;;;4.1;3.7;;;;;;;;;;;;;
2019/06/22 13:15:37;;;;;;;4;3.6;;;;;;;;;;;;;
2019/06/22 13:17:57;;;;;;;5.4;3.6;;;;;;;;;;;;;
2019/06/22 13:20:28;;;;;;;5;2.9;;;;;;;;;;;;;
2019/06/22 13:22:55;;;;;;;3.9;3.5;;;;;;;;;;;;;
2019/06/22 13:25:24;;;;;;;4.7;2.4;;;;;;;;;;;;;
2019/06/22 13:27:47;;;;;;;3.3;2.2;;;;;;;;;;;;;
2019/06/22 13:30:13;;;;;;;3.8;2.4;;;;;;;;;;;;;
2019/06/22 13:32:38;;;;;;;3;2;;;;;;;;;;;;;
2019/06/22 13:35:06;;;;;;;3.1;2.2;;;;;;;;;;;;;
2019/06/22 13:37:31;;;;;;;2.8;2.1;;;;;;;;;;;;;
2019/06/22 13:39:55;;;;;;;3.1;2.2;;;;;;;;;;;;;
2019/06/22 13:42:23;;;;;;;2.1;1.9;;;;;;;;;;;;;
2019/06/22 13:44:50;;;;;;;2;1.7;;;;;;;;;;;;;
2019/06/22 13:47:15;;;;;;;2;1.5;;;;;;;;;;;;;
2019/06/22 13:49:41;;;;;;;3.9;3.3;;;;;;;;;;;;;
2019/06/22 13:52:05;;;;;;;3.5;3.2;;;;;;;;;;;;;
2019/06/22 13:54:33;;;;;;;2.6;2.4;;;;;;;;;;;;;
2019/06/22 13:57:00;;;;;;;2.4;1.2;;;;;;;;;;;;;
2019/06/22 13:59:25;;;;;;;3;1.3;;;;;;;;;;;;;
2019/06/22 14:01:51;;;;;;;3.2;1.3;;;;;;;;;;;;;
2019/06/22 14:04:19;;;;;;;2.9;1.2;;;;;;;;;;;;;
2019/06/22 14:06:44;;;;;;;2.5;1.2;;;;;;;;;;;;;
2019/06/22 14:09:15;;;;;;;3.7;1.4;;;;;;;;;;;;;
2019/06/22 14:11:41;;;;;;;3;1.5;;;;;;;;;;;;;
2019/06/22 14:14:12;;;;;;;4.4;1.3;;;;;;;;;;;;;
2019/06/22 14:16:36;;;;;;;3.9;1.6;;;;;;;;;;;;;
2019/06/22 14:19:06;;;;;;;3.8;1.5;;;;;;;;;;;;;
2019/06/22 14:21:43;;;;;;;4.5;1.6;;;;;;;;;;;;;
2019/06/22 14:24:03;;;;;;;1.9;1.3;;;;;;;;;;;;;
2019/06/22 14:26:28;;;;;;;2.5;1.2;;;;;;;;;;;;;
2019/06/22 14:28:59;;;;;;;3.6;1.3;;;;;;;;;;;;;
2019/06/22 14:31:28;;;;;;;1.8;1.1;;;;;;;;;;;;;
2019/06/22 14:33:55;;;;;;;1.8;1;;;;;;;;;;;;;
2019/06/22 14:36:21;;;;;;;3;1;;;;;;;;;;;;;
2019/06/22 14:38:48;;;;;;;2.6;1.3;;;;;;;;;;;;;
2019/06/22 14:41:18;;;;;;;1.3;1.1;;;;;;;;;;;;;
2019/06/22 14:43:43;;;;;;;3.2;1.3;;;;;;;;;;;;;
2019/06/22 14:46:12;;;;;;;5.2;1.3;;;;;;;;;;;;;
2019/06/22 14:48:42;;;;;;;2.3;1.3;;;;;;;;;;;;;
2019/06/22 14:51:07;;;;;;;3.3;1.3;;;;;;;;;;;;;
2019/06/22 14:53:33;;;;;;;2.7;1.4;;;;;;;;;;;;;
2019/06/22 14:55:56;;;;;;;1.8;1.3;;;;;;;;;;;;;
2019/06/22 14:58:23;;;;;;;2.6;1.2;;;;;;;;;;;;;
2019/06/22 15:00:50;;;;;;;3.3;1.2;;;;;;;;;;;;;
2019/06/22 15:03:15;;;;;;;1.9;1.1;;;;;;;;;;;;;
2019/06/22 15:05:44;;;;;;;2.2;1.2;;;;;;;;;;;;;
2019/06/22 15:08:07;;;;;;;4;1.3;;;;;;;;;;;;;
2019/06/22 15:10:32;;;;;;;3;1.2;;;;;;;;;;;;;
2019/06/22 15:13:00;;;;;;;2.6;1;;;;;;;;;;;;;
2019/06/22 15:15:26;;;;;;;1.6;1.1;;;;;;;;;;;;;
2019/06/22 15:17:52;;;;;;;3.7;1.3;;;;;;;;;;;;;
2019/06/22 15:20:17;;;;;;;2.4;1.2;;;;;;;;;;;;;
2019/06/22 15:22:41;;;;;;;5;1.1;;;;;;;;;;;;;
2019/06/22 15:25:09;;;;;;;2;1;;;;;;;;;;;;;
2019/06/22 15:27:32;;;;;;;1.3;1;;;;;;;;;;;;;
2019/06/22 15:30:05;;;;;;;1.2;1.1;;;;;;;;;;;;;
2019/06/22 15:32:26;;;;;;;1.4;1.1;;;;;;;;;;;;;
2019/06/22 15:35:04;;;;;;;1.4;1;;;;;;;;;;;;;
2019/06/22 15:37:39;;;;;;;1.2;0.8;;;;;;;;;;;;;
2019/06/22 15:40:11;;;;;;;1.7;1;;;;;;;;;;;;;
2019/06/22 15:42:38;;;;;;;5.4;1.2;;;;;;;;;;;;;
2019/06/22 15:45:06;;;;;;;2.5;0.9;;;;;;;;;;;;;
2019/06/22 15:47:29;;;;;;;1.7;1.1;;;;;;;;;;;;;
2019/06/22 15:49:55;;;;;;;2.9;1.2;;;;;;;;;;;;;
2019/06/22 15:52:29;;;;;;;2.3;1.2;;;;;;;;;;;;;
2019/06/22 15:54:51;;;;;;;1.7;1.1;;;;;;;;;;;;;
2019/06/22 15:57:26;;;;;;;2.4;1.1;;;;;;;;;;;;;
2019/06/22 15:59:53;;;;;;;2;1.2;;;;;;;;;;;;;
2019/06/22 16:02:20;;;;;;;2.3;1.2;;;;;;;;;;;;;
2019/06/22 16:04:51;;;;;;;2.9;1.1;;;;;;;;;;;;;
2019/06/22 16:07:17;;;;;;;2.2;1.3;;;;;;;;;;;;;
2019/06/22 16:09:43;;;;;;;2;1.3;;;;;;;;;;;;;
2019/06/22 16:12:10;;;;;;;3.2;1.5;;;;;;;;;;;;;
2019/06/22 16:14:32;;;;;;;2.6;1.3;;;;;;;;;;;;;
2019/06/22 16:17:03;;;;;;;2.4;1.4;;;;;;;;;;;;;
2019/06/22 16:19:24;;;;;;;2.4;1.3;;;;;;;;;;;;;
2019/06/22 16:21:53;;;;;;;3;1.3;;;;;;;;;;;;;
2019/06/22 16:24:20;;;;;;;1.9;1.3;;;;;;;;;;;;;
2019/06/22 16:26:48;;;;;;;3.8;1.4;;;;;;;;;;;;;
2019/06/22 16:29:08;;;;;;;1.8;1.4;;;;;;;;;;;;;
2019/06/22 16:31:34;;;;;;;4.4;1.7;;;;;;;;;;;;;
2019/06/22 16:34:11;;;;;;;3.4;1.7;;;;;;;;;;;;;
2019/06/22 16:36:39;;;;;;;3.4;1.5;;;;;;;;;;;;;
2019/06/22 16:39:02;;;;;;;2.1;1.5;;;;;;;;;;;;;
2019/06/22 16:41:24;;;;;;;2.7;1.5;;;;;;;;;;;;;
2019/06/22 16:43:53;;;;;;;3;1.5;;;;;;;;;;;;;
2019/06/22 16:46:15;;;;;;;1.9;1.4;;;;;;;;;;;;;
2019/06/22 16:48:40;;;;;;;2.6;1.5;;;;;;;;;;;;;
2019/06/22 16:51:13;;;;;;;2.3;1.3;;;;;;;;;;;;;
2019/06/22 16:53:47;;;;;;;2.8;1.4;;;;;;;;;;;;;
2019/06/22 16:56:06;;;;;;;3.5;1.5;;;;;;;;;;;;;
2019/06/22 16:58:43;;;;;;;4.8;1.5;;;;;;;;;;;;;
2019/06/22 17:01:15;;;;;;;1.8;1.5;;;;;;;;;;;;;
2019/06/22 17:03:40;;;;;;;2;1.5;;;;;;;;;;;;;
2019/06/22 17:06:07;;;;;;;3;1.7;;;;;;;;;;;;;
2019/06/22 17:08:32;;;;;;;3.1;1.5;;;;;;;;;;;;;
2019/06/22 17:11:04;;;;;;;3.5;1.6;;;;;;;;;;;;;
2019/06/22 17:13:30;;;;;;;3.7;1.6;;;;;;;;;;;;;
2019/06/22 17:15:52;;;;;;;3;1.6;;;;;;;;;;;;;
2019/06/22 17:18:15;;;;;;;2.8;1.5;;;;;;;;;;;;;
2019/06/22 17:20:43;;;;;;;3.8;1.5;;;;;;;;;;;;;
2019/06/22 17:23:06;;;;;;;1.8;1.4;;;;;;;;;;;;;
2019/06/22 17:25:31;;;;;;;2.3;1.5;;;;;;;;;;;;;
2019/06/22 17:27:56;;;;;;;2.5;1.9;;;;;;;;;;;;;
2019/06/22 17:30:23;;;;;;;3;1.7;;;;;;;;;;;;;
2019/06/22 17:32:49;;;;;;;1.8;1.4;;;;;;;;;;;;;
2019/06/22 17:35:11;;;;;;;3.7;1.5;;;;;;;;;;;;;
2019/06/22 17:37:37;;;;;;;4.1;1.5;;;;;;;;;;;;;
2019/06/22 17:40:01;;;;;;;3.7;2;;;;;;;;;;;;;
2019/06/22 17:42:30;;;;;;;2.3;1.5;;;;;;;;;;;;;
2019/06/22 17:45:02;;;;;;;2.3;1.5;;;;;;;;;;;;;
2019/06/22 17:47:28;;;;;;;4.5;1.5;;;;;;;;;;;;;
2019/06/22 17:50:00;;;;;;;2.3;1.6;;;;;;;;;;;;;
2019/06/22 17:52:31;;;;;;;4.1;1.5;;;;;;;;;;;;;
2019/06/22 17:54:57;;;;;;;1.6;1.4;;;;;;;;;;;;;
2019/06/22 17:57:25;;;;;;;3.1;1.5;;;;;;;;;;;;;
2019/06/22 17:59:48;;;;;;;1.7;1.5;;;;;;;;;;;;;
2019/06/22 18:02:16;;;;;;;3;1.6;;;;;;;;;;;;;
2019/06/22 18:04:45;;;;;;;2.5;1.7;;;;;;;;;;;;;
2019/06/22 18:07:07;;;;;;;5;1.6;;;;;;;;;;;;;
2019/06/22 18:09:34;;;;;;;3.2;1.7;;;;;;;;;;;;;
2019/06/22 18:12:03;;;;;;;2.8;1.7;;;;;;;;;;;;;
2019/06/22 18:14:29;;;;;;;1.8;1.6;;;;;;;;;;;;;
2019/06/22 18:17:02;;;;;;;2.5;1.6;;;;;;;;;;;;;
2019/06/22 18:19:20;;;;;;;2;1.7;;;;;;;;;;;;;
2019/06/22 18:21:55;;;;;;;4;1.8;;;;;;;;;;;;;
2019/06/22 18:24:27;;;;;;;2.6;1.6;;;;;;;;;;;;;
2019/06/22 18:26:52;;;;;;;2.6;1.5;;;;;;;;;;;;;
2019/06/22 18:29:16;;;;;;;2.3;1.6;;;;;;;;;;;;;
2019/06/22 18:34:53;;;;;;;2.5;1.6;;;;;;;;;;;;;
2019/06/22 18:37:19;;;;;;;2.2;1.6;;;;;;;;;;;;;
2019/06/22 18:39:45;;;;;;;6.2;1.7;;;;;;;;;;;;;
2019/06/22 18:42:16;;;;;;;3.3;1.8;;;;;;;;;;;;;
2019/06/22 18:44:40;;;;;;;2.1;1.5;;;;;;;;;;;;;
2019/06/22 18:47:10;;;;;;;2.3;1.4;;;;;;;;;;;;;
2019/06/22 18:49:35;;;;;;;2.6;1.6;;;;;;;;;;;;;
2019/06/22 18:52:03;;;;;;;3.2;1.6;;;;;;;;;;;;;
2019/06/22 18:54:32;;;;;;;3.5;1.7;;;;;;;;;;;;;
2019/06/22 18:56:54;;;;;;;3.7;2;;;;;;;;;;;;;
2019/06/22 18:59:19;;;;;;;3;1.7;;;;;;;;;;;;;
2019/06/22 19:01:47;;;;;;;2.8;1.5;;;;;;;;;;;;;
2019/06/22 19:04:17;;;;;;;3.4;1.5;;;;;;;;;;;;;
2019/06/22 19:06:44;;;;;;;3.5;2.2;;;;;;;;;;;;;
2019/06/22 19:09:10;;;;;;;3.8;1.9;;;;;;;;;;;;;
2019/06/22 19:11:49;;;;;;;3.4;1.8;;;;;;;;;;;;;
2019/06/22 19:14:25;;;;;;;3.2;1.9;;;;;;;;;;;;;
2019/06/22 19:16:57;;;;;;;2.6;2.2;;;;;;;;;;;;;
2019/06/22 19:19:21;;;;;;;4.6;2.3;;;;;;;;;;;;;
2019/06/22 19:21:45;;;;;;;5.6;2.4;;;;;;;;;;;;;
2019/06/22 19:24:15;;;;;;;3;2.3;;;;;;;;;;;;;
2019/06/22 19:26:46;;;;;;;4;2.2;;;;;;;;;;;;;
2019/06/22 19:29:22;;;;;;;4.6;2.1;;;;;;;;;;;;;
2019/06/22 19:31:47;;;;;;;2.5;2;;;;;;;;;;;;;
2019/06/22 19:34:13;;;;;;;3.7;2.3;;;;;;;;;;;;;
2019/06/22 19:36:37;;;;;;;2.8;2.1;;;;;;;;;;;;;
2019/06/22 19:39:06;;;;;;;4.9;2.1;;;;;;;;;;;;;
2019/06/22 19:41:34;;;;;;;2.8;2.2;;;;;;;;;;;;;
2019/06/22 19:44:08;;;;;;;4.6;2.1;;;;;;;;;;;;;
2019/06/22 19:46:43;;;;;;;2.8;1.9;;;;;;;;;;;;;
2019/06/22 19:49:12;;;;;;;3.2;2.1;;;;;;;;;;;;;
2019/06/22 19:51:39;;;;;;;2.6;1.9;;;;;;;;;;;;;
2019/06/22 19:54:06;;;;;;;5.3;2.4;;;;;;;;;;;;;
2019/06/22 19:56:30;;;;;;;5.4;2.3;;;;;;;;;;;;;
2019/06/22 19:58:53;;;;;;;4;2.5;;;;;;;;;;;;;
2019/06/22 20:01:20;;;;;;;6.4;2.8;;;;;;;;;;;;;
2019/06/22 20:03:49;;;;;;;3.3;2.4;;;;;;;;;;;;;
2019/06/22 20:06:11;;;;;;;3.8;2.3;;;;;;;;;;;;;
2019/06/22 20:08:39;;;;;;;4.5;2.4;;;;;;;;;;;;;
2019/06/22 20:11:08;;;;;;;3.7;2.3;;;;;;;;;;;;;
2019/06/22 20:13:30;;;;;;;7.5;2.6;;;;;;;;;;;;;
2019/06/22 20:15:55;;;;;;;6.7;2.8;;;;;;;;;;;;;
2019/06/22 20:18:27;;;;;;;4.8;2.5;;;;;;;;;;;;;
2019/06/22 20:20:51;;;;;;;3.1;2.4;;;;;;;;;;;;;
2019/06/22 20:23:19;;;;;;;4.9;2.6;;;;;;;;;;;;;
2019/06/22 20:25:42;;;;;;;2.5;2.1;;;;;;;;;;;;;
2019/06/22 20:28:09;;;;;;;3.5;2.3;;;;;;;;;;;;;
2019/06/22 20:30:38;;;;;;;3.9;2.5;;;;;;;;;;;;;
2019/06/22 20:33:10;;;;;;;4.4;2.3;;;;;;;;;;;;;
2019/06/22 20:35:33;;;;;;;3.8;2.3;;;;;;;;;;;;;
2019/06/22 20:37:58;;;;;;;3.8;2.4;;;;;;;;;;;;;
2019/06/22 20:40:23;;;;;;;4.3;2.7;;;;;;;;;;;;;
2019/06/22 20:42:54;;;;;;;4.2;2.9;;;;;;;;;;;;;
2019/06/22 20:45:17;;;;;;;6;3.2;;;;;;;;;;;;;